Time;durP1;ratioP1;P1;durP2;ratioP2;P2;SDS_P1;SDS_P2;PMS_P1;PMS_P2;Temp;Humidity;BMP_temperature;BMP_pressure;BME280_temperature;BME280_humidity;BME280_pressure;Samples;Min_cycle;Max_cycle;Signal;HPM_P1;HPM_P2
2022/01/23 00:00:18;;;;;;;24.00;17.08;;;6.30;99.90;;;;;;5045228;28;20195;-62
2022/01/23 00:02:50;;;;;;;22.33;17.33;;;6.30;99.90;;;;;;5048302;28;20724;-62
2022/01/23 00:05:21;;;;;;;21.23;18.25;;;6.30;99.90;;;;;;5047070;28;20232;-62
2022/01/23 00:07:51;;;;;;;23.33;19.35;;;6.30;99.90;;;;;;5047094;28;21008;-62
2022/01/23 00:10:20;;;;;;;19.63;17.60;;;6.30;99.90;;;;;;5047351;28;20609;-65
2022/01/23 00:12:52;;;;;;;21.40;17.98;;;6.30;99.90;;;;;;5046580;28;20232;-62
2022/01/23 00:18:08;;;;;;;18.27;16.17;;;6.20;99.90;;;;;;5046592;28;20591;-62
2022/01/23 00:20:36;;;;;;;19.35;17.20;;;6.20;99.90;;;;;;5046796;28;20207;-62
2022/01/23 00:23:13;;;;;;;18.83;16.83;;;6.30;99.90;;;;;;5046117;28;20600;-62
2022/01/23 00:31:19;;;;;;;18.85;16.85;;;6.10;99.90;;;;;;4967460;28;20233;-73
2022/01/23 00:33:48;;;;;;;20.88;18.65;;;6.10;99.90;;;;;;4969904;28;20206;-73
2022/01/23 00:36:16;;;;;;;21.27;17.90;;;6.10;99.90;;;;;;4968866;28;20223;-73
2022/01/23 00:38:44;;;;;;;20.67;17.45;;;6.20;99.90;;;;;;4958251;28;20230;-74
2022/01/23 00:41:12;;;;;;;19.02;17.08;;;6.20;99.90;;;;;;4964461;28;20200;-74
2022/01/23 00:43:42;;;;;;;19.90;17.27;;;6.20;99.90;;;;;;4961077;28;20290;-74
2022/01/23 00:46:22;;;;;;;17.85;15.95;;;6.20;99.90;;;;;;4960502;28;20752;-71
2022/01/23 00:49:24;;;;;;;20.52;17.77;;;6.20;99.90;;;;;;4963416;28;20227;-73
2022/01/23 00:51:51;;;;;;;20.00;17.40;;;6.30;99.90;;;;;;4961724;28;20233;-74
2022/01/23 00:54:19;;;;;;;20.73;17.42;;;6.30;99.90;;;;;;4973430;28;20206;-75
2022/01/23 00:56:47;;;;;;;20.10;17.75;;;6.30;99.90;;;;;;4973730;28;20640;-74
2022/01/23 00:59:15;;;;;;;21.55;18.35;;;6.30;99.90;;;;;;4972020;28;20817;-75
2022/01/23 01:01:43;;;;;;;24.13;18.42;;;6.30;99.90;;;;;;4968752;28;20286;-75
2022/01/23 01:04:12;;;;;;;20.27;18.17;;;6.30;99.90;;;;;;4973200;28;20679;-74
2022/01/23 01:06:40;;;;;;;23.33;17.88;;;6.40;99.90;;;;;;4972951;28;20260;-74
2022/01/23 01:09:09;;;;;;;22.20;19.27;;;6.40;99.90;;;;;;4973371;28;20237;-73
2022/01/23 01:14:44;;;;;;;25.17;19.58;;;6.40;99.90;;;;;;4969843;28;20218;-73
2022/01/23 01:17:20;;;;;;;21.75;19.45;;;6.40;99.90;;;;;;4966733;28;20325;-74
2022/01/23 01:31:04;;;;;;;23.02;19.85;;;6.50;99.90;;;;;;4964664;28;20293;-74
2022/01/23 01:33:44;;;;;;;21.13;18.80;;;6.40;99.90;;;;;;4972529;28;20671;-73
2022/01/23 01:36:28;;;;;;;20.77;18.35;;;6.40;99.90;;;;;;4972742;28;20314;-73
2022/01/23 01:38:56;;;;;;;22.42;19.08;;;6.50;99.90;;;;;;4972776;28;20234;-74
2022/01/23 01:41:24;;;;;;;24.52;20.05;;;6.50;99.90;;;;;;4972875;28;20245;-75
2022/01/23 01:43:53;;;;;;;22.60;20.33;;;6.40;99.90;;;;;;4972797;28;20289;-74
2022/01/23 01:46:21;;;;;;;21.33;19.00;;;6.40;99.90;;;;;;4971385;28;20234;-75
2022/01/23 01:48:50;;;;;;;24.00;20.17;;;6.40;99.90;;;;;;4972454;28;20199;-74
2022/01/23 01:51:20;;;;;;;23.15;20.70;;;6.40;99.90;;;;;;4972510;28;20206;-73
2022/01/23 01:53:51;;;;;;;23.58;20.77;;;6.40;99.90;;;;;;4972501;28;20285;-74
2022/01/23 01:56:20;;;;;;;21.42;19.13;;;6.40;99.90;;;;;;4972892;28;20246;-74
2022/01/23 02:10:14;;;;;;;23.67;21.08;;;6.30;99.90;;;;;;4949130;28;20310;-75
2022/01/23 02:16:02;;;;;;;22.88;20.40;;;6.30;99.90;;;;;;4962106;28;20238;-74
2022/01/23 02:22:27;;;;;;;21.80;19.45;;;6.30;99.90;;;;;;4972412;28;20218;-73
2022/01/23 02:24:49;;;;;;;23.48;20.25;;;6.20;99.90;;;;;;4948725;28;20254;-75
2022/01/23 02:52:37;;;;;;;28.15;21.38;;;6.20;99.90;;;;;;4975965;28;20241;-75
2022/01/23 02:55:12;;;;;;;30.67;25.75;;;6.10;99.90;;;;;;4975922;28;20230;-75
2022/01/23 02:57:52;;;;;;;30.10;24.20;;;6.00;99.90;;;;;;4975173;28;20248;-75
2022/01/23 03:00:24;;;;;;;29.50;24.75;;;6.00;99.90;;;;;;4975641;28;20289;-73
2022/01/23 03:02:54;;;;;;;26.17;23.38;;;6.10;99.90;;;;;;4968465;28;20226;-75
2022/01/23 03:05:35;;;;;;;26.65;22.60;;;6.00;99.90;;;;;;4969043;28;20734;-75
2022/01/23 03:08:18;;;;;;;27.73;23.58;;;6.10;99.90;;;;;;4975148;28;20325;-75
2022/01/23 03:10:58;;;;;;;27.80;23.55;;;6.20;99.90;;;;;;4974561;28;20257;-75
2022/01/23 03:13:50;;;;;;;30.92;25.00;;;6.20;99.90;;;;;;4969137;28;20198;-75
2022/01/23 03:24:06;;;;;;;28.63;25.50;;;6.30;99.90;;;;;;4971924;28;20250;-74
2022/01/23 03:25:09;;;;;;;28.30;24.50;;;6.20;99.90;;;;;;4975052;28;20233;-74
2022/01/23 03:28:04;;;;;;;29.83;25.15;;;6.20;99.90;;;;;;4970403;28;20238;-75
2022/01/23 03:30:37;;;;;;;31.70;26.67;;;6.10;99.90;;;;;;4975112;28;20285;-74
2022/01/23 03:33:05;;;;;;;36.78;26.80;;;6.10;99.90;;;;;;4965857;28;20227;-75
2022/01/23 03:35:33;;;;;;;28.75;24.88;;;6.00;99.90;;;;;;4972556;28;20706;-74
2022/01/23 03:38:01;;;;;;;32.20;26.55;;;5.90;99.90;;;;;;4974995;28;20258;-74
2022/01/23 03:40:29;;;;;;;33.60;27.98;;;5.90;99.90;;;;;;4969027;28;20265;-75
2022/01/23 03:43:08;;;;;;;32.60;26.05;;;6.00;99.90;;;;;;4968764;28;20233;-75
2022/01/23 03:45:56;;;;;;;28.95;25.70;;;5.90;99.90;;;;;;4974981;28;20238;-74
2022/01/23 03:51:18;;;;;;;33.90;28.63;;;5.90;99.90;;;;;;4974540;28;20202;-73
2022/01/23 03:53:46;;;;;;;35.80;26.85;;;5.90;99.90;;;;;;4974385;28;20695;-74
2022/01/23 03:56:15;;;;;;;32.47;26.25;;;5.80;99.90;;;;;;4974348;28;20925;-74
2022/01/23 03:58:45;;;;;;;34.58;27.13;;;5.80;99.90;;;;;;4973968;28;20289;-74
2022/01/23 04:01:13;;;;;;;28.02;23.85;;;5.80;99.90;;;;;;4974274;28;20377;-74
2022/01/23 04:03:41;;;;;;;30.20;25.77;;;5.90;99.90;;;;;;4973321;28;20376;-75
2022/01/23 04:06:09;;;;;;;33.33;26.75;;;5.90;99.90;;;;;;4970012;28;20309;-75
2022/01/23 04:08:37;;;;;;;31.80;26.00;;;5.90;99.90;;;;;;4974110;28;20336;-74
2022/01/23 04:11:05;;;;;;;32.13;26.17;;;5.80;99.90;;;;;;4974350;28;20342;-74
2022/01/23 04:13:43;;;;;;;32.60;25.67;;;5.80;99.90;;;;;;4974025;28;20285;-74
2022/01/23 04:16:31;;;;;;;35.05;25.90;;;5.80;99.90;;;;;;4973269;28;20304;-75
2022/01/23 04:33:14;;;;;;;35.03;24.52;;;5.70;99.90;;;;;;4972705;28;20225;-75
2022/01/23 05:00:49;;;;;;;28.58;25.35;;;5.50;99.90;;;;;;4973159;28;20261;-76
2022/01/23 05:06:04;;;;;;;33.65;25.60;;;5.50;99.90;;;;;;4971403;28;20210;-76
2022/01/23 05:08:35;;;;;;;33.00;24.23;;;5.50;99.90;;;;;;4974508;28;20253;-76
2022/01/23 05:11:03;;;;;;;32.33;23.67;;;5.50;99.90;;;;;;4974413;28;20238;-75
2022/01/23 05:13:32;;;;;;;30.10;23.95;;;5.50;99.90;;;;;;4974357;28;20206;-77
2022/01/23 05:16:00;;;;;;;31.30;25.27;;;5.50;99.90;;;;;;4973814;28;20234;-76
2022/01/23 05:18:28;;;;;;;28.27;24.20;;;5.50;99.90;;;;;;4973901;28;20237;-77
2022/01/23 05:21:07;;;;;;;33.42;25.10;;;5.50;99.90;;;;;;4973720;28;20754;-76
2022/01/23 05:23:37;;;;;;;28.10;24.17;;;5.50;99.90;;;;;;4972499;28;20218;-75
2022/01/23 05:26:04;;;;;;;29.88;25.90;;;5.50;99.90;;;;;;4973372;28;20207;-76
2022/01/23 05:28:32;;;;;;;28.92;24.05;;;5.50;99.90;;;;;;4973487;28;20268;-76
2022/01/23 05:31:00;;;;;;;28.75;24.20;;;5.50;99.90;;;;;;4973856;28;20206;-76
2022/01/23 05:33:28;;;;;;;25.33;22.40;;;5.50;99.90;;;;;;4971637;28;20265;-76
2022/01/23 05:35:56;;;;;;;28.58;23.00;;;5.60;99.90;;;;;;4972817;28;20737;-76
2022/01/23 05:38:24;;;;;;;32.35;25.05;;;5.60;99.90;;;;;;4973239;28;20615;-76
2022/01/23 05:40:57;;;;;;;26.80;22.48;;;5.60;99.90;;;;;;4973390;28;20249;-76
2022/01/23 05:43:26;;;;;;;25.83;23.05;;;5.70;99.90;;;;;;4972951;28;20233;-76
2022/01/23 05:45:54;;;;;;;27.83;23.92;;;5.60;99.90;;;;;;4973583;28;20218;-77
2022/01/23 05:48:22;;;;;;;26.83;22.13;;;5.70;99.90;;;;;;4973271;28;20262;-76
2022/01/23 05:50:50;;;;;;;30.73;24.02;;;5.70;99.90;;;;;;4973436;28;20215;-76
2022/01/23 05:53:18;;;;;;;28.13;23.13;;;5.60;99.90;;;;;;4973006;28;20206;-76
2022/01/23 05:55:46;;;;;;;28.13;23.25;;;5.60;99.90;;;;;;4973274;28;20238;-73
2022/01/23 05:58:15;;;;;;;26.60;21.20;;;5.60;99.90;;;;;;4966948;28;20281;-74
2022/01/23 06:00:43;;;;;;;29.30;23.85;;;5.60;99.90;;;;;;4973442;28;20306;-76
2022/01/23 06:03:11;;;;;;;26.35;21.73;;;5.60;99.90;;;;;;4957955;28;20278;-76
2022/01/23 06:05:39;;;;;;;31.42;24.23;;;5.60;99.90;;;;;;4967041;28;20245;-77
2022/01/23 06:08:07;;;;;;;25.92;22.42;;;5.60;99.90;;;;;;4966882;28;20317;-75
2022/01/23 06:10:47;;;;;;;29.75;24.15;;;5.60;99.90;;;;;;4973110;28;20668;-75
2022/01/23 06:13:17;;;;;;;28.38;23.42;;;5.60;99.90;;;;;;4972951;28;20230;-76
2022/01/23 06:15:44;;;;;;;28.02;23.60;;;5.60;99.90;;;;;;4973287;28;20293;-76
2022/01/23 06:18:12;;;;;;;27.13;23.05;;;5.60;99.90;;;;;;4973292;28;20242;-75
2022/01/23 06:20:40;;;;;;;29.67;22.90;;;5.60;99.90;;;;;;4974062;28;20202;-76
2022/01/23 06:23:08;;;;;;;29.08;23.38;;;5.60;99.90;;;;;;4976579;28;20253;-75
2022/01/23 06:25:37;;;;;;;28.55;24.40;;;5.60;99.90;;;;;;4976363;28;20242;-75
2022/01/23 06:28:06;;;;;;;27.00;23.20;;;5.60;99.90;;;;;;5036319;23;20264;-65
2022/01/23 06:30:36;;;;;;;28.52;23.13;;;5.60;99.90;;;;;;5027913;28;20287;-65
2022/01/23 06:33:05;;;;;;;26.20;23.15;;;5.60;99.90;;;;;;5033358;28;20228;-64
2022/01/23 06:35:35;;;;;;;28.90;24.40;;;5.60;99.90;;;;;;5028496;28;20212;-65
2022/01/23 06:38:03;;;;;;;30.77;25.67;;;5.60;99.90;;;;;;5034376;28;20263;-66
2022/01/23 06:40:31;;;;;;;26.85;22.58;;;5.30;99.90;;;;;;5034122;28;20209;-65
2022/01/23 06:42:59;;;;;;;28.77;24.67;;;5.70;99.90;;;;;;5034006;28;20243;-65
2022/01/23 06:45:27;;;;;;;32.28;25.65;;;5.70;99.90;;;;;;5033681;28;20228;-65
2022/01/23 06:47:56;;;;;;;31.35;25.95;;;5.60;99.90;;;;;;5033895;28;20236;-65
2022/01/23 06:50:24;;;;;;;27.02;24.08;;;5.60;99.90;;;;;;5033901;28;20283;-65
2022/01/23 06:52:52;;;;;;;28.90;24.30;;;5.60;99.90;;;;;;5032458;28;20279;-66
2022/01/23 06:55:20;;;;;;;31.10;24.58;;;5.60;99.90;;;;;;5032682;28;20287;-66
2022/01/23 06:57:48;;;;;;;32.75;25.88;;;5.60;99.90;;;;;;5033837;28;20302;-66
2022/01/23 07:00:16;;;;;;;30.25;26.00;;;5.60;99.90;;;;;;5032471;28;20726;-66
2022/01/23 07:02:44;;;;;;;29.45;24.50;;;5.60;99.90;;;;;;5032250;28;20253;-65
2022/01/23 07:05:14;;;;;;;28.92;22.52;;;5.60;99.90;;;;;;5032418;28;20739;-66
2022/01/23 07:07:42;;;;;;;27.80;23.42;;;5.60;99.90;;;;;;5032306;28;20266;-66
2022/01/23 07:10:10;;;;;;;23.35;20.88;;;5.70;99.90;;;;;;5033300;28;20275;-66
2022/01/23 07:12:38;;;;;;;27.27;22.70;;;5.60;99.90;;;;;;5033407;28;20287;-66
2022/01/23 07:15:07;;;;;;;24.30;21.58;;;5.50;99.90;;;;;;5033659;28;20719;-66
2022/01/23 07:17:40;;;;;;;26.05;22.02;;;5.60;99.90;;;;;;5033238;28;20247;-66
2022/01/23 07:20:09;;;;;;;23.05;20.58;;;5.60;99.90;;;;;;5032240;28;20274;-66
2022/01/23 07:22:38;;;;;;;26.55;21.35;;;5.60;99.90;;;;;;5031942;28;20208;-65
2022/01/23 07:25:07;;;;;;;22.02;19.63;;;5.60;99.90;;;;;;5032038;28;20284;-66
2022/01/23 07:27:38;;;;;;;24.33;19.27;;;5.70;99.90;;;;;;5032947;28;20241;-66
2022/01/23 07:30:19;;;;;;;20.75;18.60;;;5.60;99.90;;;;;;5033278;28;20283;-66
2022/01/23 07:32:47;;;;;;;23.73;19.50;;;5.60;99.90;;;;;;5028124;28;20240;-67
2022/01/23 07:35:15;;;;;;;21.25;19.08;;;5.60;99.90;;;;;;5032757;28;20674;-66
2022/01/23 07:37:44;;;;;;;21.25;18.77;;;5.60;99.90;;;;;;5033037;28;20311;-65
2022/01/23 07:40:13;;;;;;;21.20;18.35;;;5.60;99.90;;;;;;5033048;28;20648;-66
2022/01/23 07:42:41;;;;;;;24.63;19.77;;;5.60;99.90;;;;;;5032978;28;20271;-65
2022/01/23 07:45:09;;;;;;;22.20;19.23;;;5.70;99.90;;;;;;5033201;28;20230;-66
2022/01/23 07:47:38;;;;;;;21.98;18.70;;;5.60;99.90;;;;;;5030912;28;20633;-64
2022/01/23 07:50:08;;;;;;;22.17;19.77;;;5.60;99.90;;;;;;5030142;28;20622;-64
2022/01/23 07:52:36;;;;;;;23.67;19.40;;;5.70;99.90;;;;;;5032131;28;20212;-65
2022/01/23 07:55:08;;;;;;;22.08;19.65;;;5.70;99.90;;;;;;5031465;28;20228;-65
2022/01/23 07:57:36;;;;;;;22.33;18.58;;;5.80;99.90;;;;;;5031517;28;20312;-65
2022/01/23 08:00:05;;;;;;;21.52;19.20;;;5.80;99.90;;;;;;5031361;28;20670;-65
2022/01/23 08:02:33;;;;;;;19.92;17.52;;;5.90;99.90;;;;;;5011682;28;20251;-65
2022/01/23 08:05:01;;;;;;;20.33;17.58;;;5.90;99.90;;;;;;5026616;28;20220;-67
2022/01/23 08:07:34;;;;;;;20.77;17.42;;;5.90;99.90;;;;;;5024139;28;20232;-67
2022/01/23 08:10:05;;;;;;;21.83;19.45;;;5.90;99.90;;;;;;5025037;28;20328;-67
2022/01/23 08:12:34;;;;;;;24.75;18.55;;;5.90;99.90;;;;;;5028112;28;20282;-64
2022/01/23 08:15:05;;;;;;;22.50;19.58;;;5.80;99.90;;;;;;5027286;28;20240;-65
2022/01/23 08:17:33;;;;;;;21.83;17.85;;;5.80;99.90;;;;;;5026632;28;20216;-65
2022/01/23 08:20:02;;;;;;;20.38;18.17;;;5.90;99.90;;;;;;5026609;28;20785;-64
2022/01/23 08:22:32;;;;;;;22.90;17.88;;;5.90;99.90;;;;;;5026851;28;20247;-64
2022/01/23 08:25:02;;;;;;;20.88;18.63;;;5.90;99.90;;;;;;5028178;28;20227;-64
2022/01/23 08:27:30;;;;;;;23.05;19.55;;;6.00;99.90;;;;;;5026600;28;20753;-64
2022/01/23 08:29:59;;;;;;;25.00;20.02;;;6.00;99.90;;;;;;5026517;28;20220;-65
2022/01/23 08:32:27;;;;;;;24.55;20.95;;;5.90;99.90;;;;;;5026416;28;20391;-64
2022/01/23 08:34:56;;;;;;;24.45;21.75;;;5.90;99.90;;;;;;5025040;28;20216;-65
2022/01/23 08:37:24;;;;;;;25.17;20.40;;;5.90;99.90;;;;;;5025925;28;20220;-64
2022/01/23 08:39:52;;;;;;;25.20;20.80;;;5.90;99.90;;;;;;5026311;28;20295;-65
2022/01/23 08:42:20;;;;;;;23.50;20.90;;;5.90;99.90;;;;;;5025937;28;20308;-64
2022/01/23 08:44:49;;;;;;;23.85;19.30;;;5.90;99.90;;;;;;5026056;28;21245;-64
2022/01/23 08:47:18;;;;;;;24.77;21.08;;;5.90;99.90;;;;;;5025524;28;20840;-65
2022/01/23 08:49:48;;;;;;;24.10;21.05;;;6.00;99.90;;;;;;5028093;28;20316;-64
2022/01/23 08:52:19;;;;;;;25.80;21.60;;;6.10;99.90;;;;;;5023428;28;20290;-64
2022/01/23 08:54:50;;;;;;;23.75;20.00;;;6.00;99.90;;;;;;5026057;28;20201;-65
2022/01/23 08:57:18;;;;;;;23.10;19.52;;;6.10;99.90;;;;;;5026419;28;20332;-64
2022/01/23 08:59:46;;;;;;;28.45;20.35;;;6.10;99.90;;;;;;5026292;28;20677;-64
2022/01/23 09:02:15;;;;;;;27.50;23.60;;;6.10;99.90;;;;;;5025349;28;20230;-64
2022/01/23 09:04:45;;;;;;;26.15;23.35;;;6.00;99.90;;;;;;5025876;28;20769;-64
2022/01/23 09:07:13;;;;;;;28.55;22.08;;;5.90;99.90;;;;;;5029755;28;20235;-64
2022/01/23 09:09:41;;;;;;;28.40;23.05;;;5.90;99.90;;;;;;5025815;28;20239;-64
2022/01/23 09:12:26;;;;;;;30.48;24.95;;;5.90;99.90;;;;;;5025998;28;20618;-65
2022/01/23 09:14:54;;;;;;;33.00;23.70;;;5.80;99.90;;;;;;5026167;28;20242;-63
2022/01/23 09:17:22;;;;;;;30.38;24.13;;;5.80;99.90;;;;;;5025912;28;20236;-65
2022/01/23 09:19:53;;;;;;;28.50;24.35;;;5.80;99.90;;;;;;5025799;28;20200;-64
2022/01/23 09:22:21;;;;;;;27.48;23.45;;;5.80;99.90;;;;;;5025465;28;20687;-64
2022/01/23 09:24:49;;;;;;;30.75;23.83;;;5.80;99.90;;;;;;5026031;28;20228;-65
2022/01/23 09:27:19;;;;;;;32.47;23.95;;;5.80;99.90;;;;;;5025611;28;20248;-65
2022/01/23 09:29:51;;;;;;;35.33;24.02;;;5.90;99.90;;;;;;5025483;28;20225;-64
2022/01/23 09:32:22;;;;;;;25.85;21.98;;;5.90;99.90;;;;;;5024087;28;20296;-64
2022/01/23 09:34:51;;;;;;;27.20;22.58;;;5.90;99.90;;;;;;5025403;28;20263;-64
2022/01/23 09:37:20;;;;;;;24.20;21.50;;;6.00;99.90;;;;;;5025490;28;20236;-64
2022/01/23 09:39:50;;;;;;;28.27;23.88;;;6.00;99.90;;;;;;5025721;28;20204;-64
2022/01/23 09:42:21;;;;;;;28.38;22.20;;;6.10;99.90;;;;;;5023324;28;20204;-65
2022/01/23 09:44:51;;;;;;;29.80;25.40;;;6.20;99.90;;;;;;5020039;28;20231;-64
2022/01/23 09:47:21;;;;;;;28.83;23.33;;;6.20;99.90;;;;;;5025310;28;20244;-64
2022/01/23 09:49:51;;;;;;;39.83;33.92;;;6.30;99.90;;;;;;5025246;28;20314;-64
2022/01/23 09:52:24;;;;;;;29.80;23.17;;;6.40;99.90;;;;;;5025314;28;20215;-64
2022/01/23 09:54:57;;;;;;;29.05;23.10;;;6.40;99.90;;;;;;5025607;28;20283;-64
2022/01/23 09:57:29;;;;;;;30.40;25.15;;;6.40;99.90;;;;;;5025254;28;20659;-65
2022/01/23 09:59:58;;;;;;;27.75;21.77;;;6.50;99.90;;;;;;5029176;28;20283;-64
2022/01/23 10:02:27;;;;;;;26.58;21.02;;;6.50;99.90;;;;;;5029041;28;20783;-64
2022/01/23 10:05:01;;;;;;;25.20;20.15;;;6.50;99.90;;;;;;5029393;28;20852;-64
2022/01/23 10:07:31;;;;;;;27.75;22.60;;;6.60;99.90;;;;;;5029330;28;20229;-64
2022/01/23 10:10:09;;;;;;;28.40;21.83;;;6.60;99.90;;;;;;5028979;28;20224;-65
2022/01/23 10:12:42;;;;;;;26.33;21.25;;;6.70;99.90;;;;;;5022875;28;20207;-65
2022/01/23 10:15:11;;;;;;;29.75;22.33;;;6.80;99.90;;;;;;5023978;28;20316;-64
2022/01/23 10:17:40;;;;;;;28.20;21.92;;;6.80;99.90;;;;;;5029318;28;20219;-64
2022/01/23 10:20:10;;;;;;;25.50;20.65;;;6.80;99.90;;;;;;5029043;28;20235;-64
2022/01/23 10:22:42;;;;;;;23.63;19.40;;;6.90;99.90;;;;;;5027744;28;20197;-65
2022/01/23 10:25:13;;;;;;;21.13;17.77;;;6.90;99.90;;;;;;5026786;28;20256;-65
2022/01/23 10:27:55;;;;;;;24.85;21.33;;;6.90;99.90;;;;;;5029017;28;20290;-64
2022/01/23 10:30:28;;;;;;;24.05;19.42;;;7.00;99.90;;;;;;5028136;28;20770;-64
2022/01/23 10:33:08;;;;;;;20.65;17.55;;;7.00;99.90;;;;;;5028893;28;20704;-65
2022/01/23 10:35:54;;;;;;;25.00;20.92;;;7.00;99.90;;;;;;5025173;28;20717;-65
2022/01/23 10:38:24;;;;;;;21.88;17.90;;;7.10;99.90;;;;;;5028682;28;20235;-64
2022/01/23 10:41:05;;;;;;;22.60;16.50;;;7.10;99.90;;;;;;5028951;28;20338;-64
2022/01/23 10:46:41;;;;;;;18.80;16.33;;;7.20;99.90;;;;;;5026761;28;20689;-64
2022/01/23 10:49:09;;;;;;;15.10;13.10;;;7.20;99.90;;;;;;5028643;28;20200;-65
2022/01/23 10:51:36;;;;;;;12.80;11.50;;;7.10;99.90;;;;;;5027666;28;20319;-65
2022/01/23 10:54:19;;;;;;;16.80;15.00;;;7.10;99.90;;;;;;5028045;28;20828;-65
2022/01/23 10:57:03;;;;;;;15.70;13.52;;;7.10;99.90;;;;;;5027898;28;20666;-65
2022/01/23 10:59:41;;;;;;;10.45;7.80;;;7.00;99.90;;;;;;5023391;28;20258;-66
2022/01/23 11:02:11;;;;;;;9.88;8.80;;;7.00;99.90;;;;;;5028087;28;20295;-65
2022/01/23 11:04:54;;;;;;;7.50;6.80;;;7.10;99.90;;;;;;5028260;28;20877;-65
2022/01/23 11:07:22;;;;;;;5.45;4.95;;;7.00;99.90;;;;;;5027824;28;20260;-65
2022/01/23 11:10:05;;;;;;;9.10;7.60;;;7.00;99.90;;;;;;5028206;28;20220;-65
2022/01/23 11:17:21;;;;;;;6.05;5.22;;;7.10;99.90;;;;;;5027845;28;20200;-65
2022/01/23 11:18:34;;;;;;;5.93;5.32;;;7.20;99.90;;;;;;5027005;28;20329;-64
2022/01/23 11:21:14;;;;;;;5.18;4.75;;;7.20;99.90;;;;;;5027913;28;20200;-65
2022/01/23 11:23:42;;;;;;;6.50;5.85;;;7.30;99.90;;;;;;5028047;28;20303;-65
2022/01/23 11:26:13;;;;;;;6.95;5.32;;;7.30;99.90;;;;;;5028169;28;20232;-66
2022/01/23 11:28:45;;;;;;;5.55;5.05;;;7.30;99.90;;;;;;5027981;28;20283;-65
2022/01/23 11:31:17;;;;;;;6.40;5.82;;;7.30;99.90;;;;;;5027853;28;20220;-65
2022/01/23 11:33:46;;;;;;;6.43;5.82;;;7.30;99.90;;;;;;5027687;28;20244;-65
2022/01/23 11:36:17;;;;;;;7.60;6.55;;;7.30;99.90;;;;;;5027706;28;20231;-65
2022/01/23 11:38:47;;;;;;;9.82;8.63;;;7.30;99.90;;;;;;5021497;28;20253;-65
2022/01/23 11:55:30;;;;;;;6.20;5.30;;;7.50;99.90;;;;;;5021932;28;20239;-64
2022/01/23 11:57:59;;;;;;;7.10;6.47;;;7.50;99.90;;;;;;5024927;28;20252;-65
2022/01/23 12:00:30;;;;;;;7.45;6.70;;;7.50;99.90;;;;;;5025923;28;20673;-65
2022/01/23 12:03:15;;;;;;;6.55;5.32;;;7.50;99.90;;;;;;5027308;28;20681;-65
2022/01/23 12:05:45;;;;;;;7.80;4.63;;;7.50;99.90;;;;;;5026915;28;20204;-65
2022/01/23 12:08:28;;;;;;;5.20;4.70;;;7.50;99.90;;;;;;5027156;28;20732;-65
2022/01/23 12:17:45;;;;;;;5.85;5.18;;;7.70;99.90;;;;;;5021802;28;20266;-64
2022/01/23 12:20:13;;;;;;;6.00;5.30;;;7.80;99.90;;;;;;5026063;28;20282;-65
2022/01/23 12:22:54;;;;;;;6.03;5.45;;;7.90;99.90;;;;;;5026679;28;20209;-66
2022/01/23 12:25:27;;;;;;;8.85;5.60;;;8.00;99.90;;;;;;5026786;28;20212;-65
2022/01/23 12:28:25;;;;;;;7.72;6.32;;;8.00;99.90;;;;;;5026630;28;20275;-65
2022/01/23 12:30:57;;;;;;;6.22;5.60;;;8.00;99.90;;;;;;5022431;28;20224;-65
2022/01/23 12:33:44;;;;;;;6.93;6.25;;;8.10;99.90;;;;;;5026489;28;20291;-65
2022/01/23 12:36:25;;;;;;;6.68;5.13;;;8.10;99.90;;;;;;5026732;28;20204;-65
2022/01/23 12:38:55;;;;;;;5.05;4.65;;;8.10;99.90;;;;;;5026800;28;20224;-66
2022/01/23 12:41:30;;;;;;;7.05;6.18;;;8.20;99.90;;;;;;5024703;28;20254;-65
2022/01/23 12:44:01;;;;;;;9.73;5.78;;;8.30;99.90;;;;;;5025841;28;20634;-66
2022/01/23 12:46:34;;;;;;;7.75;5.65;;;8.30;99.90;;;;;;5026398;28;20204;-66
2022/01/23 12:49:19;;;;;;;5.80;5.03;;;8.40;99.90;;;;;;5026710;28;20291;-65
2022/01/23 12:51:47;;;;;;;7.65;6.13;;;8.30;99.90;;;;;;5020373;28;20315;-66
2022/01/23 12:54:30;;;;;;;5.45;4.95;;;8.20;99.90;;;;;;5026103;28;20673;-65
2022/01/23 12:57:08;;;;;;;6.05;5.45;;;8.30;99.90;;;;;;5026481;28;20760;-65
2022/01/23 12:59:37;;;;;;;8.20;6.88;;;8.20;99.90;;;;;;5026480;28;20673;-65
2022/01/23 13:02:13;;;;;;;7.53;5.85;;;8.10;99.90;;;;;;5025961;28;20295;-65
2022/01/23 13:04:44;;;;;;;11.73;7.05;;;8.00;99.90;;;;;;5025016;28;20283;-65
2022/01/23 13:07:31;;;;;;;7.32;6.63;;;7.90;99.90;;;;;;5025306;28;20259;-65
2022/01/23 13:10:08;;;;;;;5.72;5.20;;;7.70;99.90;;;;;;5022787;28;20231;-65
2022/01/23 13:12:56;;;;;;;6.63;5.95;;;7.90;99.90;;;;;;5026041;28;20227;-66
2022/01/23 13:18:41;;;;;;;7.15;6.03;;;7.50;99.90;;;;;;4964666;28;20238;-65
2022/01/23 13:27:16;;;;;;;8.85;6.72;;;7.90;99.90;;;;;;5025760;28;20279;-65
2022/01/23 13:32:31;;;;;;;9.65;6.72;;;7.90;99.90;;;;;;5025159;28;20315;-66
2022/01/23 13:35:06;;;;;;;8.02;6.65;;;7.90;99.90;;;;;;5025695;28;20232;-65
2022/01/23 13:37:36;;;;;;;7.22;6.53;;;7.90;99.90;;;;;;5024090;28;20281;-65
2022/01/23 13:40:08;;;;;;;8.52;6.22;;;7.90;99.90;;;;;;5026235;28;20298;-65
2022/01/23 13:42:58;;;;;;;11.60;7.53;;;7.90;99.90;;;;;;5019295;28;20208;-65
2022/01/23 13:49:18;;;;;;;7.72;6.20;;;7.90;99.90;;;;;;5025825;28;20359;-65
2022/01/23 14:00:01;;;;;;;44.92;35.42;;;7.80;99.90;;;;;;5025928;28;20240;-64
2022/01/23 14:02:33;;;;;;;22.50;17.60;;;7.80;99.90;;;;;;5023890;28;20267;-67
2022/01/23 14:05:08;;;;;;;10.75;9.65;;;7.80;99.90;;;;;;5024204;28;20228;-64
2022/01/23 14:07:38;;;;;;;9.60;7.60;;;7.80;99.90;;;;;;5025369;28;20245;-64
2022/01/23 14:10:14;;;;;;;12.73;10.27;;;7.80;99.90;;;;;;5024901;28;20246;-65
2022/01/23 14:12:43;;;;;;;21.42;17.42;;;7.70;99.90;;;;;;5022755;28;20265;-66
2022/01/23 14:15:20;;;;;;;11.10;9.07;;;7.70;99.90;;;;;;5034018;22;20236;-75
2022/01/23 14:18:04;;;;;;;9.75;8.63;;;7.60;99.90;;;;;;5007716;28;20197;-74
2022/01/23 14:20:36;;;;;;;8.15;7.35;;;7.70;99.90;;;;;;5010121;28;20674;-75
2022/01/23 14:23:13;;;;;;;11.65;9.05;;;7.80;99.90;;;;;;5011222;28;20689;-74
2022/01/23 14:25:46;;;;;;;8.27;7.22;;;7.80;99.90;;;;;;5010971;28;20697;-75
2022/01/23 14:28:16;;;;;;;8.60;7.07;;;7.80;99.90;;;;;;5005110;28;20212;-75
2022/01/23 14:30:48;;;;;;;10.35;7.85;;;7.80;99.90;;;;;;5005554;28;20240;-75
2022/01/23 14:33:21;;;;;;;11.25;9.05;;;7.80;99.90;;;;;;5011517;28;20229;-75
2022/01/23 14:35:49;;;;;;;9.55;7.97;;;7.70;99.90;;;;;;5011613;28;20225;-75
2022/01/23 14:38:21;;;;;;;8.73;7.70;;;7.70;99.90;;;;;;5012122;28;20233;-75
2022/01/23 14:40:58;;;;;;;7.95;7.15;;;7.80;99.90;;;;;;5012168;28;20229;-75
2022/01/23 14:43:36;;;;;;;8.32;6.90;;;7.90;99.90;;;;;;5012586;28;20248;-75
2022/01/23 14:46:06;;;;;;;6.00;5.10;;;7.90;99.90;;;;;;5015723;28;20213;-75
2022/01/23 14:48:39;;;;;;;7.72;6.93;;;7.70;99.90;;;;;;5015543;28;20212;-75
2022/01/23 14:51:08;;;;;;;5.70;5.20;;;7.70;99.90;;;;;;5015510;28;20201;-75
2022/01/23 14:53:40;;;;;;;5.93;4.10;;;7.60;99.90;;;;;;5014561;28;20439;-75
2022/01/23 14:56:12;;;;;;;4.07;3.65;;;7.60;99.90;;;;;;5008718;28;20241;-75
2022/01/23 14:58:41;;;;;;;3.17;2.80;;;7.50;99.90;;;;;;5009633;28;20641;-75
2022/01/23 15:01:11;;;;;;;4.05;3.65;;;7.40;99.90;;;;;;5014925;28;20252;-74
2022/01/23 15:03:43;;;;;;;4.47;3.97;;;7.30;99.90;;;;;;5014298;28;20186;-75
2022/01/23 15:06:30;;;;;;;6.18;5.03;;;7.30;99.90;;;;;;5014757;28;20201;-74
2022/01/23 15:09:04;;;;;;;5.18;4.70;;;7.30;99.90;;;;;;5014871;28;20228;-75
2022/01/23 15:11:34;;;;;;;4.05;3.75;;;7.30;99.90;;;;;;5014682;28;20259;-74
2022/01/23 15:14:02;;;;;;;4.20;3.75;;;7.30;99.90;;;;;;5014300;28;20271;-75
2022/01/23 15:16:30;;;;;;;6.22;4.63;;;7.30;99.90;;;;;;5014990;28;20658;-74
2022/01/23 15:18:59;;;;;;;4.00;3.70;;;7.30;99.90;;;;;;5014668;28;20493;-74
2022/01/23 15:21:28;;;;;;;4.35;3.80;;;7.30;99.90;;;;;;5014260;28;20209;-74
2022/01/23 15:23:56;;;;;;;4.45;4.07;;;7.20;99.90;;;;;;5014197;28;20639;-75
2022/01/23 15:26:29;;;;;;;4.03;3.67;;;7.20;99.90;;;;;;5014344;28;20705;-74
2022/01/23 15:28:58;;;;;;;3.97;3.67;;;7.10;99.90;;;;;;5008244;28;20209;-74
2022/01/23 15:31:26;;;;;;;5.35;3.90;;;7.10;99.90;;;;;;5014198;28;20714;-74
2022/01/23 15:33:54;;;;;;;4.13;3.75;;;7.10;99.90;;;;;;5013408;28;20235;-74
2022/01/23 15:36:22;;;;;;;6.65;5.07;;;7.10;99.90;;;;;;5014061;28;20725;-75
2022/01/23 15:38:50;;;;;;;5.00;4.60;;;7.00;99.90;;;;;;5013666;28;20296;-74
2022/01/23 15:41:18;;;;;;;5.30;4.80;;;7.00;99.90;;;;;;5013839;28;20530;-74
2022/01/23 15:43:47;;;;;;;6.85;5.40;;;7.00;99.90;;;;;;5013564;28;20230;-75
2022/01/23 15:46:16;;;;;;;29.27;20.13;;;6.90;99.90;;;;;;5014280;28;20202;-74
2022/01/23 15:48:44;;;;;;;22.30;16.70;;;7.00;99.90;;;;;;5013753;28;20232;-74
2022/01/23 15:51:12;;;;;;;5.97;5.05;;;7.00;99.90;;;;;;5013700;28;20235;-75
2022/01/23 15:53:40;;;;;;;5.82;5.03;;;7.00;99.90;;;;;;5013119;28;20214;-75